createdAt,value
2023-04-18T00:01:35.209Z,3.52
2023-04-18T00:04:08.712Z,4.25
2023-04-18T00:06:42.288Z,4.37
2023-04-18T00:09:15.456Z,3.92
2023-04-18T00:11:48.810Z,4.55
2023-04-18T00:14:23.287Z,3.70
2023-04-18T00:19:28.719Z,3.95
2023-04-18T00:22:01.819Z,3.90
2023-04-18T00:24:35.102Z,3.52
2023-04-18T00:27:08.172Z,3.20
2023-04-18T00:29:42.874Z,4.70
2023-04-18T00:32:16.174Z,5.40
2023-04-18T00:34:49.110Z,4.30
2023-04-18T00:37:23.855Z,4.33
2023-04-18T00:39:56.780Z,4.12
2023-04-18T00:42:29.799Z,4.62
2023-04-18T00:45:03.062Z,3.47
2023-04-18T00:47:37.333Z,3.95
2023-04-18T00:50:12.123Z,3.95
2023-04-18T00:52:47.237Z,4.50
2023-04-18T00:55:20.716Z,4.12
2023-04-18T00:57:53.828Z,4.45
2023-04-18T01:00:27.333Z,3.80
2023-04-18T01:03:01.588Z,4.15
2023-04-18T01:05:36.692Z,4.80
2023-04-18T01:08:09.665Z,3.80
2023-04-18T01:10:42.890Z,4.08
2023-04-18T01:13:19.034Z,4.55
2023-04-18T01:15:55.026Z,4.62
2023-04-18T01:18:28.158Z,4.53
2023-04-18T01:21:01.414Z,4.22
2023-04-18T01:23:34.860Z,5.30
2023-04-18T01:26:07.942Z,4.97
2023-04-18T01:28:41.002Z,3.65
2023-04-18T01:31:13.974Z,4.40
2023-04-18T01:33:47.036Z,3.60
2023-04-18T01:38:53.221Z,4.42
2023-04-18T01:41:29.386Z,4.05
2023-04-18T01:44:02.659Z,3.92
2023-04-18T01:46:36.382Z,3.80
2023-04-18T01:49:10.342Z,3.52
2023-04-18T01:51:44.150Z,3.65
2023-04-18T01:54:17.068Z,4.28
2023-04-18T01:56:49.930Z,4.70
2023-04-18T01:59:22.951Z,4.05
2023-04-18T02:01:56.537Z,3.27
2023-04-18T02:04:29.658Z,3.60
2023-04-18T02:07:02.309Z,3.33
2023-04-18T02:09:35.411Z,3.70
2023-04-18T02:12:09.261Z,3.42
2023-04-18T02:14:42.400Z,2.92
2023-04-18T02:17:15.461Z,4.65
2023-04-18T02:19:48.682Z,3.50
2023-04-18T02:22:21.831Z,7.25
2023-04-18T02:24:54.633Z,4.12
2023-04-18T02:27:27.554Z,4.17
2023-04-18T02:30:02.042Z,4.67
2023-04-18T02:32:37.520Z,4.58
2023-04-18T02:35:13.669Z,4.17
2023-04-18T02:37:46.675Z,4.95
2023-04-18T02:40:20.343Z,3.72
2023-04-18T02:42:53.203Z,4.58
2023-04-18T02:45:26.203Z,3.08
2023-04-18T02:47:59.931Z,3.65
2023-04-18T02:50:33.454Z,3.92
2023-04-18T02:53:06.502Z,2.90
2023-04-18T02:55:41.187Z,4.08
2023-04-18T02:58:14.256Z,3.30
2023-04-18T03:00:57.752Z,4.17
2023-04-18T03:03:44.701Z,4.12
2023-04-18T03:06:19.377Z,3.30
2023-04-18T03:08:53.181Z,3.80
2023-04-18T03:11:26.143Z,3.90
2023-04-18T03:13:59.831Z,3.55
2023-04-18T03:16:34.517Z,3.55
2023-04-18T03:19:07.370Z,3.52
2023-04-18T03:21:40.582Z,3.40
2023-04-18T03:24:14.233Z,3.35
2023-04-18T03:26:48.670Z,3.15
2023-04-18T03:29:22.258Z,4.00
2023-04-18T03:34:28.293Z,2.92
2023-04-18T03:37:01.811Z,3.27
2023-04-18T03:39:35.171Z,3.80
2023-04-18T03:42:08.448Z,3.40
2023-04-18T03:44:41.478Z,3.62
2023-04-18T03:47:16.247Z,3.08
2023-04-18T03:49:50.977Z,3.77
2023-04-18T03:52:24.680Z,3.60
2023-04-18T03:54:58.054Z,3.92
2023-04-18T03:57:32.854Z,3.85
2023-04-18T04:00:10.642Z,3.25
2023-04-18T04:05:25.293Z,4.03
2023-04-18T04:07:59.364Z,4.08
2023-04-18T04:10:32.194Z,4.12
2023-04-18T04:13:05.421Z,3.60
2023-04-18T04:15:40.831Z,3.67
2023-04-18T04:18:15.418Z,4.03
2023-04-18T04:20:49.452Z,3.85
2023-04-18T04:23:27.503Z,3.90
2023-04-18T04:26:02.109Z,3.90
2023-04-18T04:28:40.380Z,5.15
2023-04-18T04:31:13.967Z,3.95
2023-04-18T04:33:47.217Z,3.90
2023-04-18T04:36:23.405Z,3.92
2023-04-18T04:38:57.230Z,4.12
2023-04-18T04:41:32.077Z,4.35
2023-04-18T04:44:05.843Z,4.47
2023-04-18T04:46:40.648Z,3.60
2023-04-18T04:49:15.754Z,3.83
2023-04-18T04:51:49.006Z,5.30
2023-04-18T04:54:22.399Z,3.50
2023-04-18T04:56:55.590Z,4.70
2023-04-18T04:59:28.803Z,4.72
2023-04-18T05:02:01.965Z,5.10
2023-04-18T05:04:35.439Z,5.30
2023-04-18T05:07:08.433Z,5.55
2023-04-18T05:09:41.278Z,5.00
2023-04-18T05:12:14.474Z,5.37
2023-04-18T05:14:49.138Z,5.00
2023-04-18T05:17:22.550Z,6.28
2023-04-18T05:19:55.471Z,6.40
2023-04-18T05:22:28.526Z,7.45
2023-04-18T05:25:01.738Z,7.92
2023-04-18T05:27:35.192Z,6.58
2023-04-18T05:30:09.479Z,7.37
2023-04-18T05:32:42.714Z,7.03
2023-04-18T05:35:15.584Z,7.85
2023-04-18T05:37:48.259Z,7.65
2023-04-18T05:40:21.443Z,8.68
2023-04-18T05:42:54.459Z,9.23
2023-04-18T05:45:27.482Z,6.40
2023-04-18T05:48:00.809Z,11.18
2023-04-18T05:50:34.016Z,7.97
2023-04-18T05:53:06.902Z,7.90
2023-04-18T05:55:41.386Z,7.97
2023-04-18T05:58:14.405Z,6.40
2023-04-18T06:00:48.582Z,8.18
2023-04-18T06:03:21.629Z,7.35
2023-04-18T06:05:54.903Z,8.65
2023-04-18T06:08:28.358Z,8.23
2023-04-18T06:11:01.352Z,8.65
2023-04-18T06:13:34.462Z,8.43
2023-04-18T06:16:09.394Z,8.85
2023-04-18T06:18:42.708Z,8.50
2023-04-18T06:21:16.445Z,7.37
2023-04-18T06:23:49.328Z,9.38
2023-04-18T06:26:22.434Z,9.50
2023-04-18T06:28:56.283Z,10.53
2023-04-18T06:31:29.364Z,10.25
2023-04-18T06:34:02.238Z,9.65
2023-04-18T06:36:35.481Z,9.83
2023-04-18T06:39:08.301Z,9.90
2023-04-18T06:41:41.351Z,7.22
2023-04-18T06:44:14.200Z,7.62
2023-04-18T06:46:47.311Z,9.48
2023-04-18T06:49:21.997Z,10.60
2023-04-18T06:51:54.771Z,8.78
2023-04-18T06:54:27.948Z,9.10
2023-04-18T06:57:03.052Z,11.97
2023-04-18T06:59:37.708Z,9.35
2023-04-18T07:02:11.151Z,8.65
2023-04-18T07:04:44.291Z,9.13
2023-04-18T07:07:17.526Z,10.20
2023-04-18T07:09:53.015Z,8.20
2023-04-18T07:12:27.475Z,6.70
2023-04-18T07:15:00.572Z,6.65
2023-04-18T07:17:34.395Z,7.27
2023-04-18T07:20:09.297Z,7.27
2023-04-18T07:22:43.074Z,8.03
2023-04-18T07:25:16.032Z,5.72
2023-04-18T07:27:49.073Z,7.35
2023-04-18T07:30:22.238Z,6.70
2023-04-18T07:32:55.558Z,7.20
2023-04-18T07:35:28.995Z,8.53
2023-04-18T07:38:02.086Z,9.23
2023-04-18T07:40:35.295Z,7.97
2023-04-18T07:43:08.450Z,7.83
2023-04-18T07:45:43.502Z,7.57
2023-04-18T07:48:16.934Z,7.00
2023-04-18T07:50:50.528Z,7.00
2023-04-18T07:53:23.534Z,7.28
2023-04-18T07:55:57.069Z,10.38
2023-04-18T07:58:30.399Z,8.75
2023-04-18T08:01:03.634Z,8.83
2023-04-18T08:03:37.443Z,7.15
2023-04-18T08:06:11.755Z,6.62
2023-04-18T08:08:44.868Z,7.22
2023-04-18T08:11:17.721Z,7.87
2023-04-18T08:13:50.627Z,10.38
2023-04-18T08:16:23.632Z,10.18
2023-04-18T08:18:56.741Z,7.55
2023-04-18T08:21:29.804Z,7.75
2023-04-18T08:24:02.713Z,7.42
2023-04-18T08:26:35.915Z,7.30
2023-04-18T08:29:08.788Z,7.03
2023-04-18T08:31:42.016Z,6.42
2023-04-18T08:34:15.038Z,7.60
2023-04-18T08:36:48.007Z,7.35
2023-04-18T08:39:21.006Z,6.58
2023-04-18T08:42:03.490Z,6.45
2023-04-18T08:44:38.744Z,5.92
2023-04-18T08:47:13.070Z,7.62
2023-04-18T08:52:19.243Z,5.95
2023-04-18T08:54:52.803Z,4.97
2023-04-18T08:57:30.253Z,7.30
2023-04-18T09:00:05.027Z,5.47
2023-04-18T09:02:45.237Z,6.47
2023-04-18T09:05:21.888Z,5.12
2023-04-18T09:07:56.902Z,5.97
2023-04-18T09:10:35.332Z,6.45
2023-04-18T09:13:09.901Z,7.15
2023-04-18T09:15:44.604Z,7.58
2023-04-18T09:18:18.576Z,6.65
2023-04-18T09:20:52.321Z,6.40
2023-04-18T09:23:26.272Z,6.75
2023-04-18T09:25:59.795Z,7.15
2023-04-18T09:28:34.450Z,7.00
2023-04-18T09:31:15.181Z,7.60
2023-04-18T09:33:57.108Z,6.87
2023-04-18T09:36:31.669Z,5.25
2023-04-18T09:41:37.354Z,5.58
2023-04-18T09:44:15.869Z,5.70
2023-04-18T09:46:49.766Z,5.78
2023-04-18T09:49:23.214Z,5.65
2023-04-18T09:51:57.763Z,5.80
2023-04-18T09:54:32.153Z,6.33
2023-04-18T09:57:06.628Z,8.98
2023-04-18T10:00:02.274Z,17.37
2023-04-18T10:02:47.949Z,10.43
2023-04-18T10:05:24.547Z,8.33
2023-04-18T10:07:57.669Z,6.30
2023-04-18T10:10:31.073Z,6.83
2023-04-18T10:13:05.277Z,6.92
2023-04-18T10:15:38.596Z,6.22
2023-04-18T10:18:17.591Z,5.75
2023-04-18T10:20:50.833Z,5.10
2023-04-18T10:23:39.321Z,5.90
2023-04-18T10:26:13.710Z,7.85
2023-04-18T10:31:32.011Z,8.23
2023-04-18T10:34:08.296Z,6.28
2023-04-18T10:36:52.423Z,8.98
2023-04-18T10:39:26.355Z,11.73
2023-04-18T10:41:59.224Z,9.53
2023-04-18T10:44:32.474Z,6.80
2023-04-18T10:47:19.279Z,5.62
2023-04-18T10:49:57.378Z,4.87
2023-04-18T10:52:30.390Z,5.70
2023-04-18T10:55:28.375Z,5.87
2023-04-18T10:58:02.089Z,6.55
2023-04-18T11:00:35.581Z,6.08
2023-04-18T11:03:08.475Z,7.22
2023-04-18T11:05:41.704Z,6.03
2023-04-18T11:08:27.030Z,5.03
2023-04-18T11:11:03.073Z,4.62
2023-04-18T11:13:37.117Z,7.37
2023-04-18T11:18:43.472Z,5.33
2023-04-18T11:21:16.661Z,4.17
2023-04-18T11:23:50.170Z,5.12
2023-04-18T11:26:26.192Z,4.23
2023-04-18T11:28:59.908Z,4.62
2023-04-18T11:31:33.391Z,5.42
2023-04-18T11:34:06.433Z,4.47
2023-04-18T11:39:12.712Z,4.50
2023-04-18T11:41:48.003Z,3.95
2023-04-18T11:44:25.718Z,4.35
2023-04-18T11:46:58.982Z,3.47
2023-04-18T11:49:33.472Z,3.45
2023-04-18T11:52:13.746Z,3.67
2023-04-18T11:54:47.266Z,3.33
2023-04-18T11:57:32.273Z,3.30
2023-04-18T12:00:07.669Z,3.60
2023-04-18T12:02:47.966Z,3.05
2023-04-18T12:05:32.186Z,4.10
2023-04-18T12:08:14.149Z,3.98
2023-04-18T12:10:51.943Z,3.40
2023-04-18T12:13:33.544Z,3.15
2023-04-18T12:16:07.926Z,4.03
2023-04-18T12:18:42.285Z,3.37
2023-04-18T12:21:16.854Z,3.40
2023-04-18T12:23:50.007Z,4.40
2023-04-18T12:26:24.360Z,3.47
2023-04-18T12:31:29.084Z,3.80
2023-04-18T12:34:02.447Z,3.75
2023-04-18T12:36:35.546Z,3.12
2023-04-18T12:39:09.439Z,3.67
2023-04-18T12:41:42.344Z,3.65
2023-04-18T12:44:15.491Z,3.95
2023-04-18T12:46:48.719Z,3.75
2023-04-18T12:49:21.855Z,3.83
2023-04-18T12:51:54.943Z,4.03
2023-04-18T12:54:27.929Z,4.83
2023-04-18T12:57:01.966Z,3.83
2023-04-18T12:59:35.148Z,3.80
2023-04-18T13:02:08.212Z,4.15
2023-04-18T13:04:41.816Z,5.08
2023-04-18T13:07:14.992Z,3.83
2023-04-18T13:09:48.219Z,5.22
2023-04-18T13:12:21.599Z,4.67
2023-04-18T13:14:55.126Z,4.15
2023-04-18T13:17:29.193Z,3.83
2023-04-18T13:20:02.523Z,4.60
2023-04-18T13:22:36.312Z,3.55
2023-04-18T13:25:12.349Z,3.72
2023-04-18T13:27:46.237Z,2.95
2023-04-18T13:30:19.536Z,4.58
2023-04-18T13:32:52.578Z,4.78
2023-04-18T13:35:25.655Z,3.50
2023-04-18T13:37:59.456Z,5.55
2023-04-18T13:40:33.760Z,5.08
2023-04-18T13:43:06.634Z,4.40
2023-04-18T13:45:39.716Z,4.15
2023-04-18T13:48:15.062Z,4.67
2023-04-18T13:50:47.530Z,3.72
2023-04-18T13:53:21.235Z,4.40
2023-04-18T13:55:54.370Z,3.87
2023-04-18T13:58:27.290Z,4.45
2023-04-18T14:01:00.313Z,4.72
2023-04-18T14:03:35.308Z,4.97
2023-04-18T14:06:08.464Z,5.28
2023-04-18T14:08:41.631Z,4.08
2023-04-18T14:11:14.662Z,3.95
2023-04-18T14:13:47.715Z,4.00
2023-04-18T14:16:20.845Z,4.28
2023-04-18T14:18:54.195Z,5.37
2023-04-18T14:21:27.388Z,5.10
2023-04-18T14:24:00.686Z,4.10
2023-04-18T14:26:33.926Z,5.03
2023-04-18T14:29:07.010Z,4.27
2023-04-18T14:31:40.109Z,4.33
2023-04-18T14:34:13.072Z,3.77
2023-04-18T14:36:46.307Z,4.15
2023-04-18T14:39:19.362Z,4.15
2023-04-18T14:41:54.386Z,3.55
2023-04-18T14:44:27.753Z,3.95
2023-04-18T14:47:00.830Z,3.92
2023-04-18T14:49:34.449Z,6.47
2023-04-18T14:52:07.444Z,5.92
2023-04-18T14:54:40.290Z,3.87
2023-04-18T14:57:13.192Z,4.62
2023-04-18T14:59:46.155Z,4.00
2023-04-18T15:02:19.112Z,4.40
2023-04-18T15:04:53.666Z,4.92
2023-04-18T15:07:27.052Z,3.15
2023-04-18T15:10:00.108Z,3.90
2023-04-18T15:12:34.075Z,4.60
2023-04-18T15:15:08.157Z,3.60
2023-04-18T15:17:42.733Z,4.10
2023-04-18T15:20:16.421Z,3.58
2023-04-18T15:22:49.193Z,3.85
2023-04-18T15:25:22.089Z,3.52
2023-04-18T15:27:55.262Z,4.00
2023-04-18T15:30:28.404Z,6.15
2023-04-18T15:33:02.742Z,4.80
2023-04-18T15:35:36.140Z,3.95
2023-04-18T15:38:08.968Z,3.52
2023-04-18T15:40:43.759Z,4.00
2023-04-18T15:43:17.551Z,4.05
2023-04-18T15:45:52.212Z,5.17
2023-04-18T15:48:25.665Z,7.37
2023-04-18T15:50:58.663Z,5.00
2023-04-18T15:53:31.984Z,5.67
2023-04-18T15:56:06.301Z,4.55
2023-04-18T15:58:39.129Z,5.03
2023-04-18T16:01:16.108Z,6.05
2023-04-18T16:03:49.307Z,6.33
2023-04-18T16:06:23.611Z,7.15
2023-04-18T16:11:29.239Z,7.10
2023-04-18T16:14:02.132Z,7.37
2023-04-18T16:16:35.212Z,8.78
2023-04-18T16:19:07.999Z,6.47
2023-04-18T16:21:41.494Z,7.92
2023-04-18T16:24:16.871Z,5.83
2023-04-18T16:26:51.376Z,6.08
2023-04-18T16:29:24.566Z,6.37
2023-04-18T16:31:57.719Z,7.30
2023-04-18T16:34:30.775Z,7.62
2023-04-18T16:37:03.754Z,8.78
2023-04-18T16:39:36.850Z,9.35
2023-04-18T16:42:09.800Z,9.68
2023-04-18T16:44:45.055Z,11.30
2023-04-18T16:47:17.939Z,13.40
2023-04-18T16:49:51.751Z,13.45
2023-04-18T16:52:25.272Z,12.70
2023-04-18T16:54:58.414Z,12.40
2023-04-18T16:57:31.733Z,11.22
2023-04-18T17:00:05.464Z,9.78
2023-04-18T17:05:13.180Z,10.48
2023-04-18T17:07:48.904Z,10.72
2023-04-18T17:10:21.911Z,11.63
2023-04-18T17:12:55.045Z,12.30
2023-04-18T17:15:28.960Z,9.53
2023-04-18T17:18:02.847Z,7.92
2023-04-18T17:20:36.513Z,8.95
2023-04-18T17:23:09.244Z,8.30
2023-04-18T17:25:42.034Z,6.95
2023-04-18T17:28:15.282Z,8.30
2023-04-18T17:30:49.829Z,7.42
2023-04-18T17:33:22.563Z,8.53
2023-04-18T17:35:55.624Z,11.88
2023-04-18T17:38:28.594Z,14.93
2023-04-18T17:41:03.177Z,8.50
2023-04-18T17:43:37.012Z,9.10
2023-04-18T17:46:10.195Z,7.50
2023-04-18T17:48:43.441Z,5.33
2023-04-18T17:51:17.097Z,5.12
2023-04-18T17:53:50.181Z,9.85
2023-04-18T17:56:23.068Z,12.28
2023-04-18T17:58:56.822Z,10.78
2023-04-18T18:01:30.738Z,12.40
2023-04-18T18:04:04.006Z,9.83
2023-04-18T18:06:37.589Z,8.97
2023-04-18T18:09:10.881Z,7.33
2023-04-18T18:11:43.826Z,7.55
2023-04-18T18:14:17.534Z,7.92
2023-04-18T18:16:50.746Z,6.37
2023-04-18T18:19:23.659Z,6.92
2023-04-18T18:21:56.825Z,7.05
2023-04-18T18:24:29.828Z,8.33
2023-04-18T18:27:02.744Z,10.05
2023-04-18T18:29:36.184Z,10.32
2023-04-18T18:32:09.381Z,8.65
2023-04-18T18:34:42.557Z,7.43
2023-04-18T18:37:15.974Z,5.35
2023-04-18T18:39:49.166Z,6.00
2023-04-18T18:42:22.102Z,6.80
2023-04-18T18:44:55.051Z,6.47
2023-04-18T18:47:28.208Z,6.30
2023-04-18T18:50:01.476Z,6.72
2023-04-18T18:52:34.828Z,8.33
2023-04-18T18:55:08.956Z,7.97
2023-04-18T19:00:15.165Z,7.17
2023-04-18T19:02:48.636Z,7.30
2023-04-18T19:05:22.177Z,9.48
2023-04-18T19:07:55.979Z,11.50
2023-04-18T19:10:28.937Z,9.08
2023-04-18T19:13:02.189Z,9.50
2023-04-18T19:15:35.204Z,8.03
2023-04-18T19:18:08.806Z,7.45
2023-04-18T19:20:42.043Z,7.90
2023-04-18T19:23:15.164Z,8.38
2023-04-18T19:25:48.649Z,8.78
2023-04-18T19:28:22.841Z,8.20
2023-04-18T19:30:55.796Z,10.40
2023-04-18T19:33:29.593Z,10.25
2023-04-18T19:36:02.636Z,10.25
2023-04-18T19:38:35.993Z,11.55
2023-04-18T19:41:09.130Z,12.58
2023-04-18T19:43:42.864Z,15.40
2023-04-18T19:46:16.177Z,13.00
2023-04-18T19:48:49.168Z,11.63
2023-04-18T19:51:22.436Z,12.20
2023-04-18T19:53:55.986Z,13.28
2023-04-18T19:56:29.141Z,10.98
2023-04-18T19:59:02.704Z,10.03
2023-04-18T20:01:37.052Z,10.23
2023-04-18T20:04:10.368Z,9.35
2023-04-18T20:06:43.878Z,12.30
2023-04-18T20:09:17.767Z,10.80
2023-04-18T20:11:50.832Z,10.63
2023-04-18T20:14:24.121Z,8.88
2023-04-18T20:16:57.619Z,10.18
2023-04-18T20:19:30.661Z,8.93
2023-04-18T20:22:03.812Z,8.83
2023-04-18T20:24:38.830Z,7.83
2023-04-18T20:27:11.872Z,8.50
2023-04-18T20:29:45.571Z,7.80
2023-04-18T20:32:18.486Z,11.08
2023-04-18T20:34:51.760Z,11.40
2023-04-18T20:37:24.709Z,7.90
2023-04-18T20:39:59.084Z,6.87
2023-04-18T20:45:08.807Z,7.00
2023-04-18T20:47:43.423Z,8.05
2023-04-18T20:50:18.411Z,12.45
2023-04-18T20:52:51.480Z,9.68
2023-04-18T20:55:24.603Z,8.25
2023-04-18T20:57:58.943Z,9.38
2023-04-18T21:03:03.760Z,13.98
2023-04-18T21:05:37.214Z,18.30
2023-04-18T21:08:11.223Z,13.35
2023-04-18T21:13:16.744Z,9.90
2023-04-18T21:15:51.253Z,11.15
2023-04-18T21:18:24.591Z,10.75
2023-04-18T21:20:57.635Z,10.97
2023-04-18T21:23:30.846Z,9.18
2023-04-18T21:26:03.875Z,11.00
2023-04-18T21:28:56.374Z,11.50
2023-04-18T21:31:33.081Z,9.73
2023-04-18T21:34:07.919Z,9.88
2023-04-18T21:36:42.004Z,9.45
2023-04-18T21:39:14.948Z,7.83
2023-04-18T21:41:48.145Z,8.53
2023-04-18T21:44:21.099Z,8.80
2023-04-18T21:46:54.173Z,9.23
2023-04-18T21:49:27.232Z,9.10
2023-04-18T21:52:00.680Z,8.43
2023-04-18T21:54:33.737Z,8.35
2023-04-18T21:57:06.984Z,7.40
2023-04-18T21:59:40.475Z,7.85
2023-04-18T22:02:13.652Z,7.87
2023-04-18T22:04:48.295Z,10.90
2023-04-18T22:07:21.838Z,8.55
2023-04-18T22:09:54.964Z,10.45
2023-04-18T22:12:28.040Z,7.53
2023-04-18T22:15:01.008Z,7.50
2023-04-18T22:17:35.485Z,7.12
2023-04-18T22:22:42.151Z,6.10
2023-04-18T22:25:15.245Z,6.40
2023-04-18T22:27:48.261Z,6.83
2023-04-18T22:30:21.314Z,6.58
2023-04-18T22:32:54.531Z,6.55
2023-04-18T22:35:28.428Z,6.45
2023-04-18T22:38:01.683Z,8.23
2023-04-18T22:40:34.860Z,9.05
2023-04-18T22:43:08.019Z,9.73
2023-04-18T22:45:41.004Z,8.48
2023-04-18T22:48:13.814Z,10.58
2023-04-18T22:50:47.651Z,10.08
2023-04-18T22:53:20.720Z,8.53
2023-04-18T22:55:53.490Z,9.28
2023-04-18T22:58:26.711Z,7.53
2023-04-18T23:01:00.719Z,8.78
2023-04-18T23:03:34.868Z,8.88
2023-04-18T23:08:41.628Z,7.67
2023-04-18T23:11:14.537Z,8.23
2023-04-18T23:13:48.560Z,6.40
2023-04-18T23:16:21.557Z,7.00
2023-04-18T23:18:54.794Z,6.50
2023-04-18T23:21:28.378Z,7.33
2023-04-18T23:24:02.224Z,5.90
2023-04-18T23:26:35.301Z,6.87
2023-04-18T23:29:08.380Z,6.72
2023-04-18T23:31:43.061Z,7.55
2023-04-18T23:34:16.459Z,8.78
2023-04-18T23:36:49.768Z,7.50
2023-04-18T23:39:23.093Z,8.03
2023-04-18T23:41:56.577Z,8.50
2023-04-18T23:44:29.622Z,8.80
2023-04-18T23:47:02.678Z,7.33
2023-04-18T23:49:36.023Z,7.58
2023-04-18T23:52:09.231Z,7.28
2023-04-18T23:54:42.104Z,7.92
2023-04-18T23:57:15.126Z,7.40
2023-04-18T23:59:48.288Z,6.92
